createdAt,value
2022-08-14T00:01:02.412Z,19.92
2022-08-14T00:03:36.543Z,19.93
2022-08-14T00:06:13.954Z,19.88
2022-08-14T00:08:50.593Z,19.82
2022-08-14T00:11:17.632Z,19.77
2022-08-14T00:13:44.421Z,19.69
2022-08-14T00:16:40.991Z,19.70
2022-08-14T00:19:18.590Z,19.74
2022-08-14T00:21:46.632Z,19.69
2022-08-14T00:24:13.608Z,19.65
2022-08-14T00:26:49.820Z,19.65
2022-08-14T00:29:21.327Z,19.64
2022-08-14T00:31:55.235Z,19.56
2022-08-14T00:34:37.188Z,19.48
2022-08-14T00:37:10.701Z,19.46
2022-08-14T00:39:37.505Z,19.43
2022-08-14T00:42:05.265Z,19.39
2022-08-14T00:44:33.329Z,19.36
2022-08-14T00:47:03.785Z,19.39
2022-08-14T00:49:30.466Z,19.34
2022-08-14T00:52:05.421Z,19.36
2022-08-14T00:54:34.277Z,19.33
2022-08-14T00:57:01.957Z,19.28
2022-08-14T00:59:28.956Z,19.23
2022-08-14T01:01:58.042Z,19.19
2022-08-14T01:04:37.963Z,19.15
2022-08-14T01:07:14.243Z,19.13
2022-08-14T01:09:41.440Z,19.08
2022-08-14T01:12:09.018Z,19.07
2022-08-14T01:14:37.249Z,19.03
2022-08-14T01:17:04.639Z,19.01
2022-08-14T01:19:31.008Z,18.99
2022-08-14T01:22:01.345Z,18.96
2022-08-14T01:24:34.142Z,18.94
2022-08-14T01:27:01.037Z,18.91
2022-08-14T01:29:58.104Z,18.90
2022-08-14T01:32:22.918Z,18.85
2022-08-14T01:35:17.423Z,18.86
2022-08-14T01:37:44.512Z,18.86
2022-08-14T01:40:15.558Z,18.82
2022-08-14T01:42:46.958Z,18.84
2022-08-14T01:45:17.934Z,18.81
2022-08-14T01:47:52.218Z,18.74
2022-08-14T01:50:32.746Z,18.76
2022-08-14T01:53:01.250Z,18.78
2022-08-14T01:55:29.620Z,18.72
2022-08-14T01:58:02.038Z,18.59
2022-08-14T02:00:42.742Z,18.58
2022-08-14T02:03:09.346Z,18.55
2022-08-14T02:05:38.239Z,18.47
2022-08-14T02:08:09.007Z,18.50
2022-08-14T02:10:46.569Z,18.47
2022-08-14T02:13:16.080Z,18.49
2022-08-14T02:15:43.594Z,18.47
2022-08-14T02:18:10.196Z,18.40
2022-08-14T02:20:38.212Z,18.37
2022-08-14T02:23:04.924Z,18.36
2022-08-14T02:25:31.582Z,18.30
2022-08-14T02:28:25.439Z,18.27
2022-08-14T02:30:45.481Z,18.23
2022-08-14T02:33:11.857Z,18.14
2022-08-14T02:35:41.545Z,18.13
2022-08-14T02:38:11.549Z,18.10
2022-08-14T02:40:38.412Z,18.08
2022-08-14T02:43:07.936Z,18.09
2022-08-14T02:45:38.680Z,18.12
2022-08-14T02:49:04.921Z,18.14
2022-08-14T02:51:00.906Z,18.03
2022-08-14T02:53:29.258Z,18.06
2022-08-14T02:56:03.061Z,18.01
2022-08-14T02:58:42.948Z,17.94
2022-08-14T03:01:10.516Z,17.96
2022-08-14T03:03:38.785Z,17.92
2022-08-14T03:06:06.944Z,17.93
2022-08-14T03:08:37.340Z,17.93
2022-08-14T03:11:07.629Z,17.86
2022-08-14T03:13:46.118Z,17.86
2022-08-14T03:16:20.183Z,17.83
2022-08-14T03:18:54.761Z,17.84
2022-08-14T03:21:23.401Z,17.83
2022-08-14T03:23:52.337Z,17.86
2022-08-14T03:26:30.099Z,17.87
2022-08-14T03:29:01.034Z,17.84
2022-08-14T03:31:29.271Z,17.84
2022-08-14T03:33:56.664Z,17.84
2022-08-14T03:37:52.044Z,17.85
2022-08-14T03:39:21.754Z,17.87
2022-08-14T03:41:51.507Z,17.86
2022-08-14T03:45:19.679Z,17.85
2022-08-14T03:47:04.996Z,17.82
2022-08-14T03:49:32.038Z,17.84
2022-08-14T03:52:01.298Z,17.80
2022-08-14T03:54:28.409Z,17.80
2022-08-14T03:56:54.790Z,17.84
2022-08-14T03:59:21.400Z,17.82
2022-08-14T04:01:57.917Z,17.78
2022-08-14T04:04:29.122Z,17.76
2022-08-14T04:06:58.689Z,17.74
2022-08-14T04:09:26.935Z,17.75
2022-08-14T04:11:53.957Z,17.77
2022-08-14T04:14:20.579Z,17.75
2022-08-14T04:16:49.898Z,17.72
2022-08-14T04:19:16.337Z,17.72
2022-08-14T04:22:02.350Z,17.65
2022-08-14T04:24:29.735Z,17.69
2022-08-14T04:26:56.827Z,17.69
2022-08-14T04:29:23.522Z,17.65
2022-08-14T04:32:57.569Z,17.64
2022-08-14T04:34:38.760Z,17.69
2022-08-14T04:37:09.237Z,17.73
2022-08-14T04:39:37.105Z,17.67
2022-08-14T04:42:14.116Z,17.70
2022-08-14T04:44:40.718Z,17.68
2022-08-14T04:47:08.127Z,17.62
2022-08-14T04:49:34.469Z,17.59
2022-08-14T04:52:15.518Z,17.58
2022-08-14T04:54:49.632Z,17.65
2022-08-14T04:57:16.053Z,17.67
2022-08-14T04:59:43.462Z,17.74
2022-08-14T05:02:09.934Z,17.76
2022-08-14T05:04:39.876Z,17.84
2022-08-14T05:07:11.753Z,17.91
2022-08-14T05:09:38.926Z,17.95
2022-08-14T05:13:24.213Z,18.01
2022-08-14T05:15:00.781Z,18.07
2022-08-14T05:17:31.921Z,18.13
2022-08-14T05:21:05.062Z,18.14
2022-08-14T05:22:57.600Z,18.18
2022-08-14T05:25:25.520Z,18.19
2022-08-14T05:27:57.266Z,18.25
2022-08-14T05:30:25.321Z,18.27
2022-08-14T05:32:52.181Z,18.43
2022-08-14T05:35:18.529Z,18.44
2022-08-14T05:37:46.217Z,18.41
2022-08-14T05:40:12.774Z,18.48
2022-08-14T05:42:39.217Z,18.56
2022-08-14T05:45:11.298Z,18.64
2022-08-14T05:47:41.357Z,18.73
2022-08-14T05:50:18.646Z,18.80
2022-08-14T05:52:47.638Z,18.84
2022-08-14T05:55:14.233Z,18.93
2022-08-14T05:57:48.986Z,18.97
2022-08-14T06:00:24.769Z,19.02
2022-08-14T06:02:56.668Z,19.08
2022-08-14T06:05:28.577Z,19.22
2022-08-14T06:07:55.564Z,19.33
2022-08-14T06:10:24.579Z,19.45
2022-08-14T06:12:56.704Z,19.55
2022-08-14T06:15:27.658Z,19.60
2022-08-14T06:17:59.122Z,19.64
2022-08-14T06:20:26.787Z,19.74
2022-08-14T06:22:55.364Z,19.73
2022-08-14T06:25:23.148Z,19.87
2022-08-14T06:27:49.613Z,20.00
2022-08-14T06:30:23.093Z,20.05
2022-08-14T06:32:52.591Z,20.11
2022-08-14T06:35:19.614Z,20.18
2022-08-14T06:37:47.652Z,20.37
2022-08-14T06:40:26.817Z,20.37
2022-08-14T06:43:00.529Z,20.44
2022-08-14T06:45:30.995Z,20.53
2022-08-14T06:47:58.656Z,20.56
2022-08-14T06:50:28.205Z,20.66
2022-08-14T06:52:56.189Z,20.75
2022-08-14T06:55:26.486Z,20.84
2022-08-14T06:57:54.852Z,20.94
2022-08-14T07:00:27.234Z,21.20
2022-08-14T07:02:54.861Z,21.30
2022-08-14T07:05:23.322Z,21.26
2022-08-14T07:07:51.499Z,21.36
2022-08-14T07:10:18.547Z,21.40
2022-08-14T07:13:00.714Z,21.47
2022-08-14T07:15:32.390Z,21.55
2022-08-14T07:18:00.910Z,21.60
2022-08-14T07:20:30.700Z,21.72
2022-08-14T07:22:59.761Z,21.78
2022-08-14T07:25:32.207Z,21.96
2022-08-14T07:28:00.124Z,22.04
2022-08-14T07:30:34.107Z,22.09
2022-08-14T07:33:01.609Z,22.11
2022-08-14T07:35:30.363Z,22.26
2022-08-14T07:38:05.017Z,22.37
2022-08-14T07:40:31.906Z,22.41
2022-08-14T07:43:14.502Z,22.54
2022-08-14T07:45:42.024Z,22.81
2022-08-14T07:48:09.356Z,22.77
2022-08-14T07:50:41.740Z,22.77
2022-08-14T07:53:13.662Z,22.91
2022-08-14T07:55:42.648Z,23.06
2022-08-14T07:58:33.804Z,23.05
2022-08-14T08:00:56.858Z,23.15
2022-08-14T08:03:25.300Z,23.18
2022-08-14T08:05:54.946Z,23.28
2022-08-14T08:08:27.055Z,23.45
2022-08-14T08:11:03.097Z,23.52
2022-08-14T08:13:33.982Z,23.62
2022-08-14T08:16:06.418Z,23.66
2022-08-14T08:18:32.748Z,23.88
2022-08-14T08:21:02.562Z,23.88
2022-08-14T08:23:40.040Z,24.11
2022-08-14T08:26:09.803Z,24.23
2022-08-14T08:28:36.508Z,24.29
2022-08-14T08:31:06.811Z,24.78
2022-08-14T08:33:37.117Z,24.70
2022-08-14T08:36:08.171Z,24.82
2022-08-14T08:39:14.785Z,24.86
2022-08-14T08:41:25.606Z,24.93
2022-08-14T08:43:53.101Z,25.29
2022-08-14T08:46:23.537Z,25.23
2022-08-14T08:51:30.819Z,25.47
2022-08-14T08:54:04.351Z,25.63
2022-08-14T08:56:39.748Z,25.83
2022-08-14T08:59:31.223Z,26.20
2022-08-14T09:02:01.204Z,27.11
2022-08-14T09:04:53.465Z,27.63
2022-08-14T09:07:27.293Z,27.98
2022-08-14T09:09:59.847Z,28.26
2022-08-14T09:12:31.704Z,28.16
2022-08-14T09:15:04.080Z,28.70
2022-08-14T09:17:38.189Z,29.46
2022-08-14T09:20:07.166Z,29.39
2022-08-14T09:22:47.726Z,29.72
2022-08-14T09:25:19.889Z,30.35
2022-08-14T09:27:56.136Z,30.72
2022-08-14T09:30:32.269Z,30.84
2022-08-14T09:33:09.258Z,31.05
2022-08-14T09:36:06.729Z,31.48
2022-08-14T09:38:44.835Z,31.81
2022-08-14T09:42:21.252Z,32.03
2022-08-14T09:44:45.804Z,32.25
2022-08-14T09:47:14.651Z,32.39
2022-08-14T09:49:41.304Z,32.91
2022-08-14T09:52:32.645Z,32.76
2022-08-14T09:55:01.084Z,33.01
2022-08-14T09:57:30.783Z,32.89
2022-08-14T09:59:58.824Z,33.09
2022-08-14T10:02:30.302Z,32.81
2022-08-14T10:05:08.669Z,32.60
2022-08-14T10:07:57.493Z,32.24
2022-08-14T10:10:37.871Z,32.28
2022-08-14T10:13:07.714Z,32.02
2022-08-14T10:15:44.845Z,31.90
2022-08-14T10:18:17.416Z,31.84
2022-08-14T10:20:56.917Z,31.71
2022-08-14T10:23:26.552Z,32.26
2022-08-14T10:25:58.184Z,32.61
2022-08-14T10:28:39.016Z,32.56
2022-08-14T10:31:27.137Z,32.57
2022-08-14T10:34:02.781Z,32.59
2022-08-14T10:36:35.057Z,32.54
2022-08-14T10:39:22.015Z,32.71
2022-08-14T10:41:54.031Z,32.47
2022-08-14T10:44:23.576Z,32.41
2022-08-14T10:47:40.917Z,32.48
2022-08-14T10:49:44.295Z,32.69
2022-08-14T10:52:19.394Z,32.90
2022-08-14T10:54:48.466Z,32.96
2022-08-14T10:57:27.680Z,32.69
2022-08-14T11:00:12.057Z,32.45
2022-08-14T11:02:54.076Z,32.08
2022-08-14T11:05:21.665Z,31.64
2022-08-14T11:07:53.730Z,31.17
2022-08-14T11:10:23.714Z,31.02
2022-08-14T11:12:57.211Z,30.64
2022-08-14T11:15:26.050Z,30.44
2022-08-14T11:17:53.064Z,30.13
2022-08-14T11:20:24.024Z,30.00
2022-08-14T11:22:57.734Z,29.79
2022-08-14T11:25:36.768Z,29.68
2022-08-14T11:28:14.682Z,29.53
2022-08-14T11:30:50.313Z,29.52
2022-08-14T11:33:25.542Z,29.51
2022-08-14T11:35:51.959Z,29.57
2022-08-14T11:38:20.069Z,29.51
2022-08-14T11:40:47.684Z,29.47
2022-08-14T11:43:15.346Z,29.37
2022-08-14T11:45:46.482Z,29.31
2022-08-14T11:49:03.432Z,29.19
2022-08-14T11:51:14.571Z,29.17
2022-08-14T11:53:42.821Z,29.04
2022-08-14T11:56:12.348Z,28.95
2022-08-14T11:58:40.177Z,29.16
2022-08-14T12:01:09.784Z,28.21
2022-08-14T12:03:51.396Z,27.39
2022-08-14T12:06:29.001Z,27.04
2022-08-14T12:09:08.464Z,26.39
2022-08-14T12:11:43.857Z,25.66
2022-08-14T12:14:30.229Z,24.80
2022-08-14T12:17:12.727Z,24.30
2022-08-14T12:19:53.697Z,23.86
2022-08-14T12:22:54.893Z,23.50
2022-08-14T12:25:24.850Z,23.27
2022-08-14T12:27:54.716Z,23.18
2022-08-14T12:30:29.247Z,23.14
2022-08-14T12:33:06.531Z,23.21
2022-08-14T12:35:44.345Z,23.28
2022-08-14T12:38:19.519Z,23.32
2022-08-14T12:40:55.957Z,23.39
2022-08-14T12:43:23.292Z,23.43
2022-08-14T12:45:54.551Z,23.58
2022-08-14T12:48:32.244Z,23.66
2022-08-14T12:50:59.151Z,23.74
2022-08-14T12:53:36.142Z,23.85
2022-08-14T12:56:22.239Z,23.95
2022-08-14T12:58:54.590Z,23.90
2022-08-14T13:01:26.987Z,23.88
2022-08-14T13:04:16.959Z,23.88
2022-08-14T13:06:50.731Z,23.83
2022-08-14T13:09:18.652Z,23.74
2022-08-14T13:11:58.676Z,23.76
2022-08-14T13:14:29.898Z,23.78
2022-08-14T13:16:58.636Z,23.79
2022-08-14T13:19:28.233Z,23.85
2022-08-14T13:22:05.686Z,23.79
2022-08-14T13:24:39.505Z,23.80
2022-08-14T13:27:06.523Z,23.77
2022-08-14T13:29:41.317Z,23.76
2022-08-14T13:32:13.495Z,23.75
2022-08-14T13:34:40.611Z,23.73
2022-08-14T13:37:07.502Z,23.77
2022-08-14T13:39:36.097Z,23.81
2022-08-14T13:42:08.219Z,23.88
2022-08-14T13:44:35.662Z,23.93
2022-08-14T13:47:03.879Z,23.98
2022-08-14T13:49:30.302Z,24.03
2022-08-14T13:52:01.350Z,24.09
2022-08-14T13:54:30.324Z,24.21
2022-08-14T13:57:00.797Z,24.35
2022-08-14T13:59:37.713Z,24.57
2022-08-14T14:02:06.857Z,24.75
2022-08-14T14:04:39.973Z,24.75
2022-08-14T14:07:12.477Z,24.89
2022-08-14T14:09:52.530Z,24.83
2022-08-14T14:12:37.510Z,24.79
2022-08-14T14:15:09.659Z,24.81
2022-08-14T14:17:36.644Z,24.92
2022-08-14T14:20:08.634Z,24.92
2022-08-14T14:23:02.806Z,24.95
2022-08-14T14:25:22.738Z,24.99
2022-08-14T14:27:53.277Z,24.99
2022-08-14T14:30:51.900Z,25.06
2022-08-14T14:33:28.880Z,25.13
2022-08-14T14:35:55.980Z,25.20
2022-08-14T14:38:23.405Z,25.21
2022-08-14T14:41:00.954Z,25.31
2022-08-14T14:43:28.226Z,25.36
2022-08-14T14:45:55.302Z,25.38
2022-08-14T14:48:22.846Z,25.39
2022-08-14T14:50:56.403Z,25.49
2022-08-14T14:53:25.513Z,25.57
2022-08-14T14:56:47.656Z,25.64
2022-08-14T14:58:42.779Z,25.71
2022-08-14T15:01:13.575Z,25.70
2022-08-14T15:03:40.384Z,25.69
2022-08-14T15:06:08.552Z,25.66
2022-08-14T15:08:56.457Z,25.67
2022-08-14T15:11:22.534Z,25.88
2022-08-14T15:13:53.265Z,25.90
2022-08-14T15:16:20.224Z,25.93
2022-08-14T15:18:49.188Z,25.90
2022-08-14T15:21:15.925Z,26.00
2022-08-14T15:23:44.740Z,26.17
2022-08-14T15:26:12.483Z,26.33
2022-08-14T15:28:49.622Z,26.56
2022-08-14T15:31:29.538Z,26.73
2022-08-14T15:34:13.452Z,26.78
2022-08-14T15:36:43.578Z,26.71
2022-08-14T15:39:10.978Z,26.78
2022-08-14T15:41:41.830Z,27.02
2022-08-14T15:44:25.346Z,27.17
2022-08-14T15:46:53.252Z,27.23
2022-08-14T15:49:19.587Z,27.24
2022-08-14T15:51:46.072Z,27.47
2022-08-14T15:54:12.898Z,27.52
2022-08-14T15:56:42.965Z,27.58
2022-08-14T15:59:10.407Z,27.68
2022-08-14T16:01:53.501Z,27.69
2022-08-14T16:04:20.710Z,27.89
2022-08-14T16:06:47.118Z,27.84
2022-08-14T16:09:21.697Z,27.73
2022-08-14T16:11:50.651Z,27.66
2022-08-14T16:14:21.214Z,27.60
2022-08-14T16:17:00.368Z,27.51
2022-08-14T16:19:28.495Z,27.45
2022-08-14T16:22:56.913Z,27.41
2022-08-14T16:24:59.651Z,27.30
2022-08-14T16:27:38.903Z,27.20
2022-08-14T16:30:12.142Z,27.13
2022-08-14T16:32:55.149Z,27.06
2022-08-14T16:35:26.326Z,27.05
2022-08-14T16:37:55.518Z,27.02
2022-08-14T16:40:22.783Z,27.04
2022-08-14T16:43:04.673Z,27.04
2022-08-14T16:45:43.423Z,27.04
2022-08-14T16:48:56.952Z,27.09
2022-08-14T16:50:57.074Z,27.07
2022-08-14T16:53:23.510Z,27.10
2022-08-14T16:56:23.211Z,27.14
2022-08-14T16:59:04.990Z,27.19
2022-08-14T17:01:31.602Z,27.17
2022-08-14T17:04:14.752Z,27.27
2022-08-14T17:06:54.824Z,27.39
2022-08-14T17:09:30.435Z,27.45
2022-08-14T17:12:07.437Z,27.45
2022-08-14T17:14:55.447Z,27.44
2022-08-14T17:17:26.689Z,27.40
2022-08-14T17:20:08.822Z,27.36
2022-08-14T17:22:53.157Z,27.37
2022-08-14T17:25:32.504Z,27.32
2022-08-14T17:28:51.740Z,27.26
2022-08-14T17:31:03.668Z,27.21
2022-08-14T17:33:40.720Z,27.18
2022-08-14T17:36:20.893Z,27.13
2022-08-14T17:38:59.767Z,27.08
2022-08-14T17:41:36.057Z,27.04
2022-08-14T17:44:34.341Z,27.01
2022-08-14T17:47:12.238Z,26.96
2022-08-14T17:49:51.951Z,26.93
2022-08-14T17:52:34.487Z,26.87
2022-08-14T17:55:05.568Z,26.81
2022-08-14T17:57:35.635Z,26.77
2022-08-14T18:00:15.113Z,26.70
2022-08-14T18:02:50.653Z,26.64
2022-08-14T18:05:23.007Z,26.61
2022-08-14T18:08:33.086Z,26.57
2022-08-14T18:10:55.061Z,26.49
2022-08-14T18:13:50.384Z,26.47
2022-08-14T18:16:20.155Z,26.38
2022-08-14T18:18:48.724Z,26.30
2022-08-14T18:21:40.069Z,26.20
2022-08-14T18:24:02.628Z,26.18
2022-08-14T18:26:36.255Z,26.16
2022-08-14T18:29:14.913Z,26.07
2022-08-14T18:31:45.203Z,26.03
2022-08-14T18:34:31.873Z,25.98
2022-08-14T18:37:09.647Z,25.92
2022-08-14T18:40:02.019Z,25.83
2022-08-14T18:42:33.258Z,25.76
2022-08-14T18:45:01.585Z,25.68
2022-08-14T18:47:56.560Z,25.60
2022-08-14T18:50:26.911Z,25.55
2022-08-14T18:53:06.969Z,25.51
2022-08-14T18:55:33.385Z,25.48
2022-08-14T18:58:00.577Z,25.45
2022-08-14T19:00:32.392Z,25.41
2022-08-14T19:03:01.535Z,25.37
2022-08-14T19:05:37.638Z,25.33
2022-08-14T19:08:17.628Z,25.28
2022-08-14T19:10:49.609Z,25.21
2022-08-14T19:13:44.791Z,25.15
2022-08-14T19:16:17.634Z,25.08
2022-08-14T19:18:50.404Z,25.03
2022-08-14T19:21:26.858Z,24.97
2022-08-14T19:24:27.702Z,24.94
2022-08-14T19:27:19.441Z,24.87
2022-08-14T19:29:47.999Z,24.85
2022-08-14T19:32:37.615Z,24.81
2022-08-14T19:35:17.074Z,24.77
2022-08-14T19:37:53.834Z,24.72
2022-08-14T19:40:35.974Z,24.68
2022-08-14T19:43:06.598Z,24.62
2022-08-14T19:45:35.966Z,24.58
2022-08-14T19:48:11.783Z,24.53
2022-08-14T19:50:41.233Z,24.49
2022-08-14T19:53:17.369Z,24.45
2022-08-14T19:55:57.051Z,24.48
2022-08-14T19:58:55.116Z,24.44
2022-08-14T20:01:36.690Z,24.40
2022-08-14T20:04:07.917Z,24.32
2022-08-14T20:06:55.135Z,24.27
2022-08-14T20:11:06.880Z,24.24
2022-08-14T20:12:34.654Z,24.21
2022-08-14T20:15:09.141Z,24.17
2022-08-14T20:17:40.393Z,24.11
2022-08-14T20:20:30.676Z,24.10
2022-08-14T20:23:11.340Z,24.08
2022-08-14T20:25:55.971Z,24.07
2022-08-14T20:28:28.791Z,24.03
2022-08-14T20:31:17.660Z,23.99
2022-08-14T20:34:24.400Z,23.97
2022-08-14T20:37:10.075Z,23.96
2022-08-14T20:39:43.739Z,23.86
2022-08-14T20:42:19.017Z,23.91
2022-08-14T20:44:45.886Z,23.88
2022-08-14T20:47:15.383Z,23.86
2022-08-14T20:49:42.376Z,23.83
2022-08-14T20:52:18.738Z,23.84
2022-08-14T20:54:50.470Z,23.82
2022-08-14T20:57:18.812Z,23.79
2022-08-14T20:59:56.565Z,23.81
2022-08-14T21:02:46.171Z,23.83
2022-08-14T21:05:19.447Z,23.83
2022-08-14T21:07:51.263Z,23.80
2022-08-14T21:10:35.771Z,23.79
2022-08-14T21:13:26.289Z,23.78
2022-08-14T21:15:58.159Z,23.76
2022-08-14T21:18:47.721Z,23.83
2022-08-14T21:21:18.719Z,23.83
2022-08-14T21:23:55.307Z,23.85
2022-08-14T21:26:51.201Z,23.85
2022-08-14T21:29:10.613Z,23.86
2022-08-14T21:31:38.211Z,23.87
2022-08-14T21:34:27.447Z,23.83
2022-08-14T21:36:51.638Z,23.85
2022-08-14T21:39:18.685Z,23.79
2022-08-14T21:41:58.939Z,23.80
2022-08-14T21:44:34.353Z,23.75
2022-08-14T21:47:12.380Z,23.76
2022-08-14T21:49:40.263Z,23.71
2022-08-14T21:52:51.794Z,23.68
2022-08-14T21:55:08.484Z,23.64
2022-08-14T21:58:38.394Z,23.65
2022-08-14T22:00:35.657Z,23.64
2022-08-14T22:03:05.871Z,23.60
2022-08-14T22:05:32.929Z,23.56
2022-08-14T22:08:02.506Z,23.51
2022-08-14T22:10:29.581Z,23.52
2022-08-14T22:13:00.823Z,23.48
2022-08-14T22:15:28.926Z,23.43
2022-08-14T22:17:57.104Z,23.39
2022-08-14T22:20:26.245Z,23.38
2022-08-14T22:22:55.943Z,23.34
2022-08-14T22:25:33.606Z,23.33
2022-08-14T22:28:03.359Z,23.35
2022-08-14T22:30:30.313Z,23.29
2022-08-14T22:33:00.045Z,23.33
2022-08-14T22:35:27.688Z,23.32
2022-08-14T22:38:34.680Z,23.30
2022-08-14T22:41:01.626Z,23.30
2022-08-14T22:43:31.179Z,23.26
2022-08-14T22:45:58.317Z,23.24
2022-08-14T22:48:29.465Z,23.25
2022-08-14T22:50:56.060Z,23.23
2022-08-14T22:53:23.637Z,23.26
2022-08-14T22:55:52.028Z,23.20
2022-08-14T22:58:20.388Z,23.17
2022-08-14T23:00:58.581Z,23.16
2022-08-14T23:03:25.082Z,23.18
2022-08-14T23:05:52.482Z,23.17
2022-08-14T23:08:57.017Z,23.12
2022-08-14T23:11:07.542Z,23.14
2022-08-14T23:13:33.956Z,23.14
2022-08-14T23:16:00.644Z,23.12
2022-08-14T23:18:29.420Z,23.14
2022-08-14T23:20:56.642Z,23.14
2022-08-14T23:23:23.375Z,23.16
2022-08-14T23:25:59.428Z,23.17
2022-08-14T23:28:32.844Z,23.16
2022-08-14T23:31:02.504Z,23.16
2022-08-14T23:33:33.437Z,23.09
2022-08-14T23:36:00.554Z,23.05
2022-08-14T23:38:30.713Z,23.00
2022-08-14T23:41:02.394Z,23.03
2022-08-14T23:43:31.398Z,22.91
2022-08-14T23:45:58.045Z,22.91
2022-08-14T23:48:27.898Z,22.83
2022-08-14T23:50:54.998Z,22.73
2022-08-14T23:53:48.279Z,22.72
2022-08-14T23:56:30.401Z,22.68
2022-08-14T23:59:00.284Z,22.60
